sensor_id;sensor_type;location;lat;lon;timestamp;P1;durP1;ratioP1;P2;durP2;ratioP2
63016;SDS011;50274;45.640;11.756;2023-01-16T00:01:31;26.92;;;17.08;;
63016;SDS011;50274;45.640;11.756;2023-01-16T00:03:56;28.87;;;17.77;;
63016;SDS011;50274;45.640;11.756;2023-01-16T00:06:22;24.85;;;16.23;;
63016;SDS011;50274;45.640;11.756;2023-01-16T00:08:48;22.30;;;14.17;;
63016;SDS011;50274;45.640;11.756;2023-01-16T00:11:14;26.55;;;17.08;;
63016;SDS011;50274;45.640;11.756;2023-01-16T00:13:40;22.95;;;14.88;;
63016;SDS011;50274;45.640;11.756;2023-01-16T00:16:06;23.67;;;14.93;;
63016;SDS011;50274;45.640;11.756;2023-01-16T00:18:32;23.15;;;15.60;;
63016;SDS011;50274;45.640;11.756;2023-01-16T00:20:59;24.25;;;16.30;;
63016;SDS011;50274;45.640;11.756;2023-01-16T00:23:25;27.35;;;18.52;;
63016;SDS011;50274;45.640;11.756;2023-01-16T00:25:50;28.10;;;17.20;;
63016;SDS011;50274;45.640;11.756;2023-01-16T00:28:16;29.13;;;19.15;;
63016;SDS011;50274;45.640;11.756;2023-01-16T00:30:42;31.17;;;19.37;;
63016;SDS011;50274;45.640;11.756;2023-01-16T00:33:08;28.33;;;18.30;;
63016;SDS011;50274;45.640;11.756;2023-01-16T00:35:34;29.30;;;18.67;;
63016;SDS011;50274;45.640;11.756;2023-01-16T00:38:00;28.17;;;18.70;;
63016;SDS011;50274;45.640;11.756;2023-01-16T00:40:26;29.70;;;19.07;;
63016;SDS011;50274;45.640;11.756;2023-01-16T00:42:52;26.95;;;17.80;;
63016;SDS011;50274;45.640;11.756;2023-01-16T00:45:18;26.13;;;17.35;;
63016;SDS011;50274;45.640;11.756;2023-01-16T00:47:44;29.13;;;19.20;;
63016;SDS011;50274;45.640;11.756;2023-01-16T00:50:10;28.13;;;17.80;;
63016;SDS011;50274;45.640;11.756;2023-01-16T00:52:36;27.83;;;19.13;;
63016;SDS011;50274;45.640;11.756;2023-01-16T00:55:02;30.47;;;20.70;;
63016;SDS011;50274;45.640;11.756;2023-01-16T00:57:28;31.98;;;20.55;;
63016;SDS011;50274;45.640;11.756;2023-01-16T00:59:54;29.90;;;19.83;;
63016;SDS011;50274;45.640;11.756;2023-01-16T01:02:20;28.47;;;19.13;;
63016;SDS011;50274;45.640;11.756;2023-01-16T01:04:46;36.40;;;22.85;;
63016;SDS011;50274;45.640;11.756;2023-01-16T01:07:11;30.77;;;20.87;;
63016;SDS011;50274;45.640;11.756;2023-01-16T01:09:37;31.75;;;19.60;;
63016;SDS011;50274;45.640;11.756;2023-01-16T01:12:03;31.30;;;19.60;;
63016;SDS011;50274;45.640;11.756;2023-01-16T01:14:29;32.07;;;20.07;;
63016;SDS011;50274;45.640;11.756;2023-01-16T01:16:55;30.02;;;19.85;;
63016;SDS011;50274;45.640;11.756;2023-01-16T01:19:20;29.27;;;19.60;;
63016;SDS011;50274;45.640;11.756;2023-01-16T01:21:46;31.02;;;19.52;;
63016;SDS011;50274;45.640;11.756;2023-01-16T01:24:12;29.17;;;18.20;;
63016;SDS011;50274;45.640;11.756;2023-01-16T01:26:38;27.13;;;17.80;;
63016;SDS011;50274;45.640;11.756;2023-01-16T01:29:04;27.73;;;17.80;;
63016;SDS011;50274;45.640;11.756;2023-01-16T01:31:30;24.93;;;17.13;;
63016;SDS011;50274;45.640;11.756;2023-01-16T01:33:55;27.92;;;17.65;;
63016;SDS011;50274;45.640;11.756;2023-01-16T01:36:21;25.50;;;17.13;;
63016;SDS011;50274;45.640;11.756;2023-01-16T01:38:47;26.97;;;17.73;;
63016;SDS011;50274;45.640;11.756;2023-01-16T01:41:15;26.00;;;16.88;;
63016;SDS011;50274;45.640;11.756;2023-01-16T01:43:46;25.73;;;17.08;;
63016;SDS011;50274;45.640;11.756;2023-01-16T01:49:44;27.07;;;17.37;;
63016;SDS011;50274;45.640;11.756;2023-01-16T01:51:48;31.38;;;18.80;;
63016;SDS011;50274;45.640;11.756;2023-01-16T01:54:17;32.22;;;20.38;;
63016;SDS011;50274;45.640;11.756;2023-01-16T01:56:50;32.42;;;19.90;;
63016;SDS011;50274;45.640;11.756;2023-01-16T01:59:33;41.15;;;22.40;;
63016;SDS011;50274;45.640;11.756;2023-01-16T02:02:04;33.63;;;20.50;;
63016;SDS011;50274;45.640;11.756;2023-01-16T02:04:34;34.22;;;21.35;;
63016;SDS011;50274;45.640;11.756;2023-01-16T02:07:05;32.75;;;21.75;;
63016;SDS011;50274;45.640;11.756;2023-01-16T02:09:33;29.27;;;19.05;;
63016;SDS011;50274;45.640;11.756;2023-01-16T02:12:06;29.92;;;19.85;;
63016;SDS011;50274;45.640;11.756;2023-01-16T02:14:38;29.93;;;18.47;;
63016;SDS011;50274;45.640;11.756;2023-01-16T02:39:01;31.33;;;18.40;;
63016;SDS011;50274;45.640;11.756;2023-01-16T02:41:44;23.77;;;15.63;;
63016;SDS011;50274;45.640;11.756;2023-01-16T02:47:05;25.85;;;15.88;;
63016;SDS011;50274;45.640;11.756;2023-01-16T02:49:40;26.27;;;16.73;;
63016;SDS011;50274;45.640;11.756;2023-01-16T02:52:12;29.88;;;18.17;;
63016;SDS011;50274;45.640;11.756;2023-01-16T02:57:34;26.50;;;16.80;;
63016;SDS011;50274;45.640;11.756;2023-01-16T03:00:13;30.52;;;17.88;;
63016;SDS011;50274;45.640;11.756;2023-01-16T03:02:51;29.15;;;17.40;;
63016;SDS011;50274;45.640;11.756;2023-01-16T03:05:18;28.17;;;17.25;;
63016;SDS011;50274;45.640;11.756;2023-01-16T03:13:49;27.40;;;17.20;;
63016;SDS011;50274;45.640;11.756;2023-01-16T03:16:46;29.35;;;17.02;;
63016;SDS011;50274;45.640;11.756;2023-01-16T03:22:28;24.97;;;14.73;;
63016;SDS011;50274;45.640;11.756;2023-01-16T03:25:30;25.13;;;15.35;;
63016;SDS011;50274;45.640;11.756;2023-01-16T03:31:11;23.42;;;14.90;;
63016;SDS011;50274;45.640;11.756;2023-01-16T03:34:11;23.13;;;14.93;;
63016;SDS011;50274;45.640;11.756;2023-01-16T03:40:24;26.00;;;15.32;;
63016;SDS011;50274;45.640;11.756;2023-01-16T03:48:43;21.17;;;13.43;;
63016;SDS011;50274;45.640;11.756;2023-01-16T03:59:47;19.15;;;11.38;;
63016;SDS011;50274;45.640;11.756;2023-01-16T04:02:28;20.58;;;12.07;;
63016;SDS011;50274;45.640;11.756;2023-01-16T04:07:46;17.40;;;10.70;;
63016;SDS011;50274;45.640;11.756;2023-01-16T04:10:31;18.92;;;11.00;;
63016;SDS011;50274;45.640;11.756;2023-01-16T04:13:06;18.67;;;12.13;;
63016;SDS011;50274;45.640;11.756;2023-01-16T04:15:37;17.63;;;10.93;;
63016;SDS011;50274;45.640;11.756;2023-01-16T04:18:10;18.03;;;10.90;;
63016;SDS011;50274;45.640;11.756;2023-01-16T04:20:39;19.85;;;12.15;;
63016;SDS011;50274;45.640;11.756;2023-01-16T04:23:11;20.85;;;11.70;;
63016;SDS011;50274;45.640;11.756;2023-01-16T04:25:38;18.50;;;11.40;;
63016;SDS011;50274;45.640;11.756;2023-01-16T04:28:06;16.13;;;10.55;;
63016;SDS011;50274;45.640;11.756;2023-01-16T04:33:28;16.50;;;10.45;;
63016;SDS011;50274;45.640;11.756;2023-01-16T04:35:56;15.88;;;9.70;;
63016;SDS011;50274;45.640;11.756;2023-01-16T04:38:24;19.10;;;10.55;;
63016;SDS011;50274;45.640;11.756;2023-01-16T04:40:54;16.53;;;10.57;;
63016;SDS011;50274;45.640;11.756;2023-01-16T04:43:21;17.77;;;10.75;;
63016;SDS011;50274;45.640;11.756;2023-01-16T04:45:50;18.20;;;11.27;;
63016;SDS011;50274;45.640;11.756;2023-01-16T04:48:16;17.17;;;9.68;;
63016;SDS011;50274;45.640;11.756;2023-01-16T04:50:49;17.90;;;10.63;;
63016;SDS011;50274;45.640;11.756;2023-01-16T04:53:17;17.17;;;10.50;;
63016;SDS011;50274;45.640;11.756;2023-01-16T04:55:43;18.60;;;12.23;;
63016;SDS011;50274;45.640;11.756;2023-01-16T04:58:10;17.80;;;11.30;;
63016;SDS011;50274;45.640;11.756;2023-01-16T05:00:37;17.13;;;10.73;;
63016;SDS011;50274;45.640;11.756;2023-01-16T05:03:05;21.13;;;12.50;;
63016;SDS011;50274;45.640;11.756;2023-01-16T05:05:34;17.77;;;11.30;;
63016;SDS011;50274;45.640;11.756;2023-01-16T05:08:06;22.95;;;13.30;;
63016;SDS011;50274;45.640;11.756;2023-01-16T05:10:43;23.48;;;13.18;;
63016;SDS011;50274;45.640;11.756;2023-01-16T05:13:20;23.97;;;12.67;;
63016;SDS011;50274;45.640;11.756;2023-01-16T05:16:01;24.27;;;14.77;;
63016;SDS011;50274;45.640;11.756;2023-01-16T05:18:39;22.85;;;14.20;;
63016;SDS011;50274;45.640;11.756;2023-01-16T05:21:09;26.17;;;15.32;;
63016;SDS011;50274;45.640;11.756;2023-01-16T05:23:49;21.67;;;13.55;;
63016;SDS011;50274;45.640;11.756;2023-01-16T05:26:24;20.77;;;13.17;;
63016;SDS011;50274;45.640;11.756;2023-01-16T05:28:52;22.88;;;13.65;;
63016;SDS011;50274;45.640;11.756;2023-01-16T05:31:19;24.38;;;14.82;;
63016;SDS011;50274;45.640;11.756;2023-01-16T05:33:46;22.92;;;14.43;;
63016;SDS011;50274;45.640;11.756;2023-01-16T05:36:14;19.60;;;12.90;;
63016;SDS011;50274;45.640;11.756;2023-01-16T05:38:44;22.77;;;14.20;;
63016;SDS011;50274;45.640;11.756;2023-01-16T05:41:16;21.77;;;13.52;;
63016;SDS011;50274;45.640;11.756;2023-01-16T05:43:44;19.25;;;12.20;;
63016;SDS011;50274;45.640;11.756;2023-01-16T05:46:14;21.70;;;13.88;;
63016;SDS011;50274;45.640;11.756;2023-01-16T05:48:43;21.57;;;12.27;;
63016;SDS011;50274;45.640;11.756;2023-01-16T05:51:12;19.75;;;11.60;;
63016;SDS011;50274;45.640;11.756;2023-01-16T05:53:41;19.75;;;12.48;;
63016;SDS011;50274;45.640;11.756;2023-01-16T05:56:11;19.98;;;11.98;;
63016;SDS011;50274;45.640;11.756;2023-01-16T05:58:40;18.08;;;12.10;;
63016;SDS011;50274;45.640;11.756;2023-01-16T06:01:06;18.57;;;10.80;;
63016;SDS011;50274;45.640;11.756;2023-01-16T06:03:37;18.08;;;10.43;;
63016;SDS011;50274;45.640;11.756;2023-01-16T06:06:06;17.65;;;11.18;;
63016;SDS011;50274;45.640;11.756;2023-01-16T06:08:34;22.03;;;12.13;;
63016;SDS011;50274;45.640;11.756;2023-01-16T06:11:03;18.30;;;11.93;;
63016;SDS011;50274;45.640;11.756;2023-01-16T06:13:32;16.98;;;11.25;;
63016;SDS011;50274;45.640;11.756;2023-01-16T06:16:02;17.05;;;10.45;;
63016;SDS011;50274;45.640;11.756;2023-01-16T06:18:31;15.23;;;9.80;;
63016;SDS011;50274;45.640;11.756;2023-01-16T06:21:00;13.83;;;8.97;;
63016;SDS011;50274;45.640;11.756;2023-01-16T06:23:30;13.02;;;8.40;;
63016;SDS011;50274;45.640;11.756;2023-01-16T06:25:58;13.40;;;8.23;;
63016;SDS011;50274;45.640;11.756;2023-01-16T06:28:25;14.30;;;8.27;;
63016;SDS011;50274;45.640;11.756;2023-01-16T06:30:53;12.15;;;7.80;;
63016;SDS011;50274;45.640;11.756;2023-01-16T06:33:22;12.20;;;7.70;;
63016;SDS011;50274;45.640;11.756;2023-01-16T06:35:50;11.95;;;7.38;;
63016;SDS011;50274;45.640;11.756;2023-01-16T06:38:18;11.07;;;7.00;;
63016;SDS011;50274;45.640;11.756;2023-01-16T06:40:45;12.55;;;7.88;;
63016;SDS011;50274;45.640;11.756;2023-01-16T06:43:15;12.35;;;7.85;;
63016;SDS011;50274;45.640;11.756;2023-01-16T06:45:44;11.53;;;7.50;;
63016;SDS011;50274;45.640;11.756;2023-01-16T06:48:12;10.35;;;6.22;;
63016;SDS011;50274;45.640;11.756;2023-01-16T06:50:39;10.15;;;6.60;;
63016;SDS011;50274;45.640;11.756;2023-01-16T06:53:07;13.40;;;8.40;;
63016;SDS011;50274;45.640;11.756;2023-01-16T06:55:34;12.60;;;8.33;;
63016;SDS011;50274;45.640;11.756;2023-01-16T06:58:04;15.48;;;9.95;;
63016;SDS011;50274;45.640;11.756;2023-01-16T07:00:34;16.00;;;9.88;;
63016;SDS011;50274;45.640;11.756;2023-01-16T07:03:03;19.83;;;11.60;;
63016;SDS011;50274;45.640;11.756;2023-01-16T07:05:32;20.25;;;12.80;;
63016;SDS011;50274;45.640;11.756;2023-01-16T07:08:00;22.63;;;13.07;;
63016;SDS011;50274;45.640;11.756;2023-01-16T07:10:29;22.77;;;13.52;;
63016;SDS011;50274;45.640;11.756;2023-01-16T07:12:57;19.67;;;11.77;;
63016;SDS011;50274;45.640;11.756;2023-01-16T07:15:25;18.83;;;10.77;;
63016;SDS011;50274;45.640;11.756;2023-01-16T07:18:12;19.05;;;11.32;;
63016;SDS011;50274;45.640;11.756;2023-01-16T07:20:58;17.17;;;11.53;;
63016;SDS011;50274;45.640;11.756;2023-01-16T07:23:46;17.38;;;11.10;;
63016;SDS011;50274;45.640;11.756;2023-01-16T07:26:18;17.02;;;10.98;;
63016;SDS011;50274;45.640;11.756;2023-01-16T07:28:47;18.10;;;11.10;;
63016;SDS011;50274;45.640;11.756;2023-01-16T07:31:15;16.95;;;10.98;;
63016;SDS011;50274;45.640;11.756;2023-01-16T07:33:41;17.87;;;11.57;;
63016;SDS011;50274;45.640;11.756;2023-01-16T07:36:07;16.17;;;10.27;;
63016;SDS011;50274;45.640;11.756;2023-01-16T07:38:33;14.15;;;9.48;;
63016;SDS011;50274;45.640;11.756;2023-01-16T07:40:59;13.27;;;8.93;;
63016;SDS011;50274;45.640;11.756;2023-01-16T07:43:25;14.00;;;9.40;;
63016;SDS011;50274;45.640;11.756;2023-01-16T07:45:50;22.23;;;11.97;;
63016;SDS011;50274;45.640;11.756;2023-01-16T07:48:20;17.38;;;10.43;;
63016;SDS011;50274;45.640;11.756;2023-01-16T07:50:50;16.20;;;10.25;;
63016;SDS011;50274;45.640;11.756;2023-01-16T07:53:17;14.20;;;9.45;;
63016;SDS011;50274;45.640;11.756;2023-01-16T07:55:46;14.80;;;9.35;;
63016;SDS011;50274;45.640;11.756;2023-01-16T07:58:17;13.63;;;7.70;;
63016;SDS011;50274;45.640;11.756;2023-01-16T08:00:46;13.15;;;7.90;;
63016;SDS011;50274;45.640;11.756;2023-01-16T08:03:13;14.30;;;8.90;;
63016;SDS011;50274;45.640;11.756;2023-01-16T08:05:40;15.45;;;10.45;;
63016;SDS011;50274;45.640;11.756;2023-01-16T08:08:10;16.33;;;10.77;;
63016;SDS011;50274;45.640;11.756;2023-01-16T08:10:37;17.63;;;11.30;;
63016;SDS011;50274;45.640;11.756;2023-01-16T08:13:03;18.73;;;12.43;;
63016;SDS011;50274;45.640;11.756;2023-01-16T08:15:29;16.90;;;12.05;;
63016;SDS011;50274;45.640;11.756;2023-01-16T08:17:55;15.73;;;11.45;;
63016;SDS011;50274;45.640;11.756;2023-01-16T08:20:21;16.97;;;11.50;;
63016;SDS011;50274;45.640;11.756;2023-01-16T08:22:48;17.85;;;12.40;;
63016;SDS011;50274;45.640;11.756;2023-01-16T08:25:15;18.20;;;11.95;;
63016;SDS011;50274;45.640;11.756;2023-01-16T08:27:42;16.70;;;11.52;;
63016;SDS011;50274;45.640;11.756;2023-01-16T08:30:09;16.13;;;11.23;;
63016;SDS011;50274;45.640;11.756;2023-01-16T08:32:35;14.90;;;10.07;;
63016;SDS011;50274;45.640;11.756;2023-01-16T08:35:01;12.85;;;9.07;;
63016;SDS011;50274;45.640;11.756;2023-01-16T08:37:31;13.93;;;9.10;;
63016;SDS011;50274;45.640;11.756;2023-01-16T08:39:57;13.77;;;9.43;;
63016;SDS011;50274;45.640;11.756;2023-01-16T08:42:24;13.40;;;9.00;;
63016;SDS011;50274;45.640;11.756;2023-01-16T08:45:10;14.38;;;9.20;;
63016;SDS011;50274;45.640;11.756;2023-01-16T08:47:55;14.13;;;9.02;;
63016;SDS011;50274;45.640;11.756;2023-01-16T08:50:42;12.70;;;8.90;;
63016;SDS011;50274;45.640;11.756;2023-01-16T08:53:28;13.95;;;9.32;;
63016;SDS011;50274;45.640;11.756;2023-01-16T08:55:54;13.65;;;9.75;;
63016;SDS011;50274;45.640;11.756;2023-01-16T08:58:20;13.07;;;9.45;;
63016;SDS011;50274;45.640;11.756;2023-01-16T09:00:46;15.00;;;9.37;;
63016;SDS011;50274;45.640;11.756;2023-01-16T09:03:14;13.43;;;9.47;;
63016;SDS011;50274;45.640;11.756;2023-01-16T09:05:43;15.25;;;10.23;;
63016;SDS011;50274;45.640;11.756;2023-01-16T09:08:09;16.50;;;10.52;;
63016;SDS011;50274;45.640;11.756;2023-01-16T09:10:35;16.38;;;10.75;;
63016;SDS011;50274;45.640;11.756;2023-01-16T09:13:01;15.23;;;9.77;;
63016;SDS011;50274;45.640;11.756;2023-01-16T09:16:01;14.43;;;9.90;;
63016;SDS011;50274;45.640;11.756;2023-01-16T09:18:27;14.85;;;9.68;;
63016;SDS011;50274;45.640;11.756;2023-01-16T09:20:53;15.17;;;9.87;;
63016;SDS011;50274;45.640;11.756;2023-01-16T09:23:19;14.63;;;9.82;;
63016;SDS011;50274;45.640;11.756;2023-01-16T09:25:45;12.90;;;8.63;;
63016;SDS011;50274;45.640;11.756;2023-01-16T09:28:11;15.27;;;9.90;;
63016;SDS011;50274;45.640;11.756;2023-01-16T09:30:37;14.27;;;9.10;;
63016;SDS011;50274;45.640;11.756;2023-01-16T09:33:03;12.80;;;7.77;;
63016;SDS011;50274;45.640;11.756;2023-01-16T09:35:28;11.27;;;7.28;;
63016;SDS011;50274;45.640;11.756;2023-01-16T09:37:54;14.10;;;9.23;;
63016;SDS011;50274;45.640;11.756;2023-01-16T09:40:20;15.50;;;10.25;;
63016;SDS011;50274;45.640;11.756;2023-01-16T09:45:43;14.13;;;9.40;;
63016;SDS011;50274;45.640;11.756;2023-01-16T09:48:14;11.88;;;7.93;;
63016;SDS011;50274;45.640;11.756;2023-01-16T09:50:49;11.48;;;7.18;;
63016;SDS011;50274;45.640;11.756;2023-01-16T09:53:21;11.95;;;7.63;;
63016;SDS011;50274;45.640;11.756;2023-01-16T09:56:18;17.63;;;10.47;;
63016;SDS011;50274;45.640;11.756;2023-01-16T10:01:59;12.55;;;7.75;;
63016;SDS011;50274;45.640;11.756;2023-01-16T10:04:47;11.82;;;7.45;;
63016;SDS011;50274;45.640;11.756;2023-01-16T10:10:02;12.13;;;7.27;;
63016;SDS011;50274;45.640;11.756;2023-01-16T10:12:44;13.00;;;8.20;;
63016;SDS011;50274;45.640;11.756;2023-01-16T10:21:41;11.30;;;5.90;;
63016;SDS011;50274;45.640;11.756;2023-01-16T10:27:16;9.00;;;5.15;;
63016;SDS011;50274;45.640;11.756;2023-01-16T10:35:33;51.63;;;24.67;;
63016;SDS011;50274;45.640;11.756;2023-01-16T10:38:16;32.77;;;16.70;;
63016;SDS011;50274;45.640;11.756;2023-01-16T10:40:47;17.80;;;9.98;;
63016;SDS011;50274;45.640;11.756;2023-01-16T10:43:19;13.73;;;7.35;;
63016;SDS011;50274;45.640;11.756;2023-01-16T10:46:17;9.80;;;5.95;;
63016;SDS011;50274;45.640;11.756;2023-01-16T10:49:03;12.60;;;6.90;;
63016;SDS011;50274;45.640;11.756;2023-01-16T10:51:47;11.37;;;6.37;;
63016;SDS011;50274;45.640;11.756;2023-01-16T10:54:13;9.25;;;5.65;;
63016;SDS011;50274;45.640;11.756;2023-01-16T10:56:40;9.80;;;6.20;;
63016;SDS011;50274;45.640;11.756;2023-01-16T10:59:10;9.80;;;5.47;;
63016;SDS011;50274;45.640;11.756;2023-01-16T11:01:36;9.95;;;5.28;;
63016;SDS011;50274;45.640;11.756;2023-01-16T11:04:04;7.73;;;4.47;;
63016;SDS011;50274;45.640;11.756;2023-01-16T11:06:34;8.23;;;4.57;;
63016;SDS011;50274;45.640;11.756;2023-01-16T11:09:06;9.30;;;5.35;;
63016;SDS011;50274;45.640;11.756;2023-01-16T11:11:34;8.68;;;4.80;;
63016;SDS011;50274;45.640;11.756;2023-01-16T11:22:58;7.70;;;4.38;;
63016;SDS011;50274;45.640;11.756;2023-01-16T11:25:42;9.40;;;4.97;;
63016;SDS011;50274;45.640;11.756;2023-01-16T11:28:16;9.10;;;5.13;;
63016;SDS011;50274;45.640;11.756;2023-01-16T11:31:18;8.83;;;5.00;;
63016;SDS011;50274;45.640;11.756;2023-01-16T11:34:03;10.15;;;5.43;;
63016;SDS011;50274;45.640;11.756;2023-01-16T11:36:47;11.77;;;5.55;;
63016;SDS011;50274;45.640;11.756;2023-01-16T11:39:25;8.73;;;4.85;;
63016;SDS011;50274;45.640;11.756;2023-01-16T11:42:03;9.32;;;5.05;;
63016;SDS011;50274;45.640;11.756;2023-01-16T11:44:56;7.60;;;4.83;;
63016;SDS011;50274;45.640;11.756;2023-01-16T11:47:56;8.65;;;4.50;;
63016;SDS011;50274;45.640;11.756;2023-01-16T11:50:47;6.40;;;3.83;;
63016;SDS011;50274;45.640;11.756;2023-01-16T11:53:35;6.63;;;3.58;;
63016;SDS011;50274;45.640;11.756;2023-01-16T12:13:07;5.53;;;2.60;;
63016;SDS011;50274;45.640;11.756;2023-01-16T12:24:28;5.90;;;2.25;;
63016;SDS011;50274;45.640;11.756;2023-01-16T12:27:17;7.47;;;2.73;;
63016;SDS011;50274;45.640;11.756;2023-01-16T12:36:02;3.95;;;1.30;;
63016;SDS011;50274;45.640;11.756;2023-01-16T12:38:46;5.60;;;1.40;;
63016;SDS011;50274;45.640;11.756;2023-01-16T12:41:25;4.20;;;1.60;;
63016;SDS011;50274;45.640;11.756;2023-01-16T12:47:10;4.57;;;1.83;;
63016;SDS011;50274;45.640;11.756;2023-01-16T12:52:57;4.97;;;2.03;;
63016;SDS011;50274;45.640;11.756;2023-01-16T12:55:57;4.17;;;1.70;;
63016;SDS011;50274;45.640;11.756;2023-01-16T12:58:27;4.60;;;1.50;;
63016;SDS011;50274;45.640;11.756;2023-01-16T13:01:14;4.70;;;1.75;;
63016;SDS011;50274;45.640;11.756;2023-01-16T13:06:54;4.65;;;1.48;;
63016;SDS011;50274;45.640;11.756;2023-01-16T13:09:27;6.37;;;1.90;;
63016;SDS011;50274;45.640;11.756;2023-01-16T13:12:14;6.35;;;2.20;;
63016;SDS011;50274;45.640;11.756;2023-01-16T13:15:02;5.07;;;1.92;;
63016;SDS011;50274;45.640;11.756;2023-01-16T13:17:55;5.10;;;1.88;;
63016;SDS011;50274;45.640;11.756;2023-01-16T13:20:43;5.30;;;2.00;;
63016;SDS011;50274;45.640;11.756;2023-01-16T13:23:17;5.50;;;2.03;;
63016;SDS011;50274;45.640;11.756;2023-01-16T13:25:49;5.90;;;2.65;;
63016;SDS011;50274;45.640;11.756;2023-01-16T13:31:23;6.68;;;2.60;;
63016;SDS011;50274;45.640;11.756;2023-01-16T13:39:38;6.50;;;2.70;;
63016;SDS011;50274;45.640;11.756;2023-01-16T13:42:15;7.90;;;2.88;;
63016;SDS011;50274;45.640;11.756;2023-01-16T13:44:44;6.43;;;2.53;;
63016;SDS011;50274;45.640;11.756;2023-01-16T13:47:56;6.78;;;2.70;;
63016;SDS011;50274;45.640;11.756;2023-01-16T13:50:24;6.13;;;2.80;;
63016;SDS011;50274;45.640;11.756;2023-01-16T13:52:54;5.15;;;2.20;;
63016;SDS011;50274;45.640;11.756;2023-01-16T13:55:26;5.95;;;2.60;;
63016;SDS011;50274;45.640;11.756;2023-01-16T13:58:14;4.40;;;1.85;;
63016;SDS011;50274;45.640;11.756;2023-01-16T14:00:45;4.20;;;1.73;;
63016;SDS011;50274;45.640;11.756;2023-01-16T14:03:22;4.30;;;1.70;;
63016;SDS011;50274;45.640;11.756;2023-01-16T14:06:19;5.55;;;2.00;;
63016;SDS011;50274;45.640;11.756;2023-01-16T14:14:31;6.07;;;2.58;;
63016;SDS011;50274;45.640;11.756;2023-01-16T14:17:30;6.00;;;2.90;;
63016;SDS011;50274;45.640;11.756;2023-01-16T14:26:03;7.43;;;2.55;;
63016;SDS011;50274;45.640;11.756;2023-01-16T14:28:31;6.95;;;2.70;;
63016;SDS011;50274;45.640;11.756;2023-01-16T14:30:59;8.07;;;3.10;;
63016;SDS011;50274;45.640;11.756;2023-01-16T14:33:27;8.50;;;4.07;;
63016;SDS011;50274;45.640;11.756;2023-01-16T14:35:54;8.02;;;4.90;;
63016;SDS011;50274;45.640;11.756;2023-01-16T14:38:23;7.05;;;3.28;;
63016;SDS011;50274;45.640;11.756;2023-01-16T14:40:57;6.95;;;3.65;;
63016;SDS011;50274;45.640;11.756;2023-01-16T14:46:52;7.13;;;2.63;;
63016;SDS011;50274;45.640;11.756;2023-01-16T14:49:58;7.78;;;2.92;;
63016;SDS011;50274;45.640;11.756;2023-01-16T14:52:56;10.45;;;3.45;;
63016;SDS011;50274;45.640;11.756;2023-01-16T14:55:46;5.50;;;2.47;;
63016;SDS011;50274;45.640;11.756;2023-01-16T14:58:26;6.17;;;2.60;;
63016;SDS011;50274;45.640;11.756;2023-01-16T15:01:12;6.55;;;2.95;;
63016;SDS011;50274;45.640;11.756;2023-01-16T15:04:22;6.28;;;2.80;;
63016;SDS011;50274;45.640;11.756;2023-01-16T15:06:52;7.38;;;3.00;;
63016;SDS011;50274;45.640;11.756;2023-01-16T15:09:23;8.38;;;3.28;;
63016;SDS011;50274;45.640;11.756;2023-01-16T15:12:00;5.47;;;2.63;;
63016;SDS011;50274;45.640;11.756;2023-01-16T15:14:28;6.82;;;2.92;;
63016;SDS011;50274;45.640;11.756;2023-01-16T15:17:05;7.75;;;3.33;;
63016;SDS011;50274;45.640;11.756;2023-01-16T15:22:57;7.43;;;3.45;;
63016;SDS011;50274;45.640;11.756;2023-01-16T15:30:42;7.22;;;3.65;;
63016;SDS011;50274;45.640;11.756;2023-01-16T15:33:28;8.00;;;3.92;;
63016;SDS011;50274;45.640;11.756;2023-01-16T15:36:25;7.35;;;3.63;;
63016;SDS011;50274;45.640;11.756;2023-01-16T15:38:59;7.63;;;4.10;;
63016;SDS011;50274;45.640;11.756;2023-01-16T15:41:31;7.20;;;4.15;;
63016;SDS011;50274;45.640;11.756;2023-01-16T15:44:20;8.60;;;4.45;;
63016;SDS011;50274;45.640;11.756;2023-01-16T15:53:14;9.33;;;4.27;;
63016;SDS011;50274;45.640;11.756;2023-01-16T15:55:43;8.77;;;4.47;;
63016;SDS011;50274;45.640;11.756;2023-01-16T16:01:04;9.38;;;4.78;;
63016;SDS011;50274;45.640;11.756;2023-01-16T16:03:46;9.45;;;4.68;;
63016;SDS011;50274;45.640;11.756;2023-01-16T16:06:15;8.67;;;4.70;;
63016;SDS011;50274;45.640;11.756;2023-01-16T16:08:43;7.82;;;4.20;;
63016;SDS011;50274;45.640;11.756;2023-01-16T16:11:16;7.43;;;4.35;;
63016;SDS011;50274;45.640;11.756;2023-01-16T16:14:02;8.65;;;5.43;;
63016;SDS011;50274;45.640;11.756;2023-01-16T16:16:59;9.52;;;6.05;;
63016;SDS011;50274;45.640;11.756;2023-01-16T16:19:48;8.27;;;5.63;;
63016;SDS011;50274;45.640;11.756;2023-01-16T16:22:19;9.35;;;6.03;;
63016;SDS011;50274;45.640;11.756;2023-01-16T16:25:21;10.23;;;5.07;;
63016;SDS011;50274;45.640;11.756;2023-01-16T16:27:54;9.48;;;5.53;;
63016;SDS011;50274;45.640;11.756;2023-01-16T16:30:26;8.87;;;5.10;;
63016;SDS011;50274;45.640;11.756;2023-01-16T16:32:54;9.27;;;5.65;;
63016;SDS011;50274;45.640;11.756;2023-01-16T16:35:22;7.80;;;4.03;;
63016;SDS011;50274;45.640;11.756;2023-01-16T16:38:00;7.38;;;4.07;;
63016;SDS011;50274;45.640;11.756;2023-01-16T16:40:26;8.15;;;3.97;;
63016;SDS011;50274;45.640;11.756;2023-01-16T16:42:54;7.83;;;4.00;;
63016;SDS011;50274;45.640;11.756;2023-01-16T16:45:26;7.47;;;4.00;;
63016;SDS011;50274;45.640;11.756;2023-01-16T16:50:51;9.55;;;3.72;;
63016;SDS011;50274;45.640;11.756;2023-01-16T16:53:36;7.75;;;3.70;;
63016;SDS011;50274;45.640;11.756;2023-01-16T16:56:06;6.43;;;3.50;;
63016;SDS011;50274;45.640;11.756;2023-01-16T16:58:38;6.85;;;3.38;;
63016;SDS011;50274;45.640;11.756;2023-01-16T17:01:09;8.23;;;4.25;;
63016;SDS011;50274;45.640;11.756;2023-01-16T17:03:37;7.05;;;3.70;;
63016;SDS011;50274;45.640;11.756;2023-01-16T17:06:02;8.60;;;3.70;;
63016;SDS011;50274;45.640;11.756;2023-01-16T17:08:28;6.82;;;3.38;;
63016;SDS011;50274;45.640;11.756;2023-01-16T17:10:55;8.27;;;3.58;;
63016;SDS011;50274;45.640;11.756;2023-01-16T17:13:22;7.63;;;3.90;;
63016;SDS011;50274;45.640;11.756;2023-01-16T17:15:50;6.38;;;3.45;;
63016;SDS011;50274;45.640;11.756;2023-01-16T17:18:20;7.20;;;3.47;;
63016;SDS011;50274;45.640;11.756;2023-01-16T17:20:48;7.13;;;3.83;;
63016;SDS011;50274;45.640;11.756;2023-01-16T17:23:17;7.30;;;4.00;;
63016;SDS011;50274;45.640;11.756;2023-01-16T17:25:44;8.77;;;4.25;;
63016;SDS011;50274;45.640;11.756;2023-01-16T17:28:10;7.75;;;3.92;;
63016;SDS011;50274;45.640;11.756;2023-01-16T17:30:37;7.83;;;4.00;;
63016;SDS011;50274;45.640;11.756;2023-01-16T17:33:17;7.82;;;3.90;;
63016;SDS011;50274;45.640;11.756;2023-01-16T17:35:45;8.13;;;4.47;;
63016;SDS011;50274;45.640;11.756;2023-01-16T17:38:19;7.22;;;3.88;;
63016;SDS011;50274;45.640;11.756;2023-01-16T17:40:45;7.35;;;3.65;;
63016;SDS011;50274;45.640;11.756;2023-01-16T17:43:15;6.83;;;3.63;;
63016;SDS011;50274;45.640;11.756;2023-01-16T17:46:01;8.52;;;4.00;;
63016;SDS011;50274;45.640;11.756;2023-01-16T17:48:31;7.40;;;3.80;;
63016;SDS011;50274;45.640;11.756;2023-01-16T17:50:57;8.35;;;4.20;;
63016;SDS011;50274;45.640;11.756;2023-01-16T17:53:26;7.03;;;4.00;;
63016;SDS011;50274;45.640;11.756;2023-01-16T17:55:54;7.35;;;4.20;;
63016;SDS011;50274;45.640;11.756;2023-01-16T18:01:04;8.25;;;4.43;;